Songea Airport

Airport
ICAO code: 
HTSO
IATA Code: 
SGX
Summary
ICAO Region: 
AFI
Territory: 
Location: 
Songea, Ruvuma Region
Serving: 
Songea
Elevation: 
3445 ft
Coordinates: 
Aerial View: 
10° 40' 59.988" S, 35° 34' 59.988" E
Metar
Observation
HTSO 162200Z 27008KT 9999 BKN080 22/19 Q1017
Station
Songea
Date/Time
2022-01-16 22:00:00
Wind direction
270°
Wind speed
08 kts
Lowest cloud amount
broken clouds
Temperature
22°C
Dew point
19°C
Humidity
83%
QNH
1017 hPa
Weather condition
n/a

Songea Airport is an airport in southern Tanzania serving the town of Songea and the surrounding Ruvuma Region.

Climatology

Humid subtropical climate (Köppen climate classification Cwa)

Airport map: 
Aerial View: 

SKYbrary Partners:

Safety knowledge contributed by: